createdAt,value
2019-02-07T00:01:39.592Z,58.97
2019-02-07T00:04:11.200Z,59.43
2019-02-07T00:06:43.307Z,64.07
2019-02-07T00:09:14.991Z,62.77
2019-02-07T00:11:46.795Z,60.90
2019-02-07T00:14:18.738Z,61.77
2019-02-07T00:16:50.269Z,63.47
2019-02-07T00:19:21.960Z,62.57
2019-02-07T00:21:53.556Z,59.07
2019-02-07T00:24:25.150Z,59.33
2019-02-07T00:26:56.913Z,61.73
2019-02-07T00:29:28.589Z,61.33
2019-02-07T00:32:00.786Z,55.63
2019-02-07T00:34:32.569Z,49.33
2019-02-07T00:37:04.706Z,53.77
2019-02-07T00:39:36.448Z,56.30
2019-02-07T00:42:08.159Z,51.43
2019-02-07T00:44:50.227Z,46.00
2019-02-07T00:47:14.784Z,49.47
2019-02-07T00:49:46.716Z,49.70
2019-02-07T00:52:18.428Z,53.20
2019-02-07T00:54:50.207Z,45.27
2019-02-07T00:57:21.857Z,50.17
2019-02-07T00:59:53.536Z,47.37
2019-02-07T01:02:25.219Z,52.93
2019-02-07T01:04:56.845Z,41.07
2019-02-07T01:07:28.476Z,44.33
2019-02-07T01:10:00.107Z,34.20
2019-02-07T01:12:31.846Z,50.17
2019-02-07T01:15:03.503Z,40.90
2019-02-07T01:17:35.213Z,37.60
2019-02-07T01:20:08.585Z,39.70
2019-02-07T01:22:40.490Z,41.73
2019-02-07T01:25:14.890Z,42.83
2019-02-07T01:27:47.535Z,38.60
2019-02-07T01:30:24.040Z,41.97
2019-02-07T01:32:55.691Z,41.20
2019-02-07T01:35:32.142Z,38.57
2019-02-07T01:38:03.839Z,42.83
2019-02-07T01:40:39.536Z,33.63
2019-02-07T01:43:11.938Z,31.03
2019-02-07T01:45:50.486Z,37.00
2019-02-07T01:48:22.128Z,31.30
2019-02-07T01:50:53.941Z,24.90
2019-02-07T01:53:25.647Z,25.83
2019-02-07T01:55:57.239Z,27.40
2019-02-07T01:58:28.890Z,30.63
2019-02-07T02:01:00.568Z,22.17
2019-02-07T02:03:32.227Z,28.70
2019-02-07T02:06:03.884Z,29.47
2019-02-07T02:08:35.494Z,30.03
2019-02-07T02:11:07.013Z,26.30
2019-02-07T02:13:40.034Z,29.23
2019-02-07T02:16:11.695Z,28.47
2019-02-07T02:18:43.386Z,27.80
2019-02-07T02:21:15.084Z,24.13
2019-02-07T02:23:46.754Z,24.37
2019-02-07T02:26:18.343Z,24.83
2019-02-07T02:28:50.155Z,24.70
2019-02-07T02:31:21.707Z,24.53
2019-02-07T02:33:53.425Z,27.67
2019-02-07T02:36:25.148Z,25.70
2019-02-07T02:38:57.176Z,23.90
2019-02-07T02:41:28.846Z,23.50
2019-02-07T02:44:00.746Z,27.10
2019-02-07T02:46:32.493Z,22.90
2019-02-07T02:49:04.335Z,25.13
2019-02-07T02:51:36.035Z,22.93
2019-02-07T02:54:09.388Z,21.50
2019-02-07T02:56:41.111Z,22.07
2019-02-07T02:59:12.827Z,25.37
2019-02-07T03:02:05.333Z,21.10
2019-02-07T03:04:51.508Z,20.97
2019-02-07T03:07:47.785Z,24.80
2019-02-07T03:10:33.421Z,21.30
2019-02-07T03:13:39.015Z,23.00
2019-02-07T03:16:29.448Z,20.43
2019-02-07T03:19:18.394Z,21.20
2019-02-07T03:22:21.264Z,20.77
2019-02-07T03:25:25.358Z,23.13
2019-02-07T03:28:18.684Z,24.50
2019-02-07T03:31:09.022Z,18.97
2019-02-07T03:33:50.534Z,21.80
2019-02-07T03:36:41.865Z,22.47
2019-02-07T03:39:44.162Z,19.87
2019-02-07T03:42:40.516Z,24.80
2019-02-07T03:45:38.066Z,19.67
2019-02-07T03:48:40.508Z,22.77
2019-02-07T03:51:28.615Z,21.00
2019-02-07T03:54:24.585Z,21.33
2019-02-07T03:57:24.312Z,21.67
2019-02-07T04:00:17.661Z,22.60
2019-02-07T04:03:13.844Z,19.83
2019-02-07T04:06:10.467Z,20.93
2019-02-07T04:08:59.326Z,23.10
2019-02-07T04:11:48.296Z,24.00
2019-02-07T04:14:28.614Z,20.50
2019-02-07T04:17:17.838Z,20.90
2019-02-07T04:20:10.282Z,22.10
2019-02-07T04:23:00.467Z,24.40
2019-02-07T04:25:53.793Z,20.87
2019-02-07T04:28:35.062Z,24.90
2019-02-07T04:31:12.172Z,16.83
2019-02-07T04:34:02.643Z,20.67
2019-02-07T04:36:45.236Z,20.10
2019-02-07T04:39:38.332Z,19.53
2019-02-07T04:42:39.055Z,20.03
2019-02-07T04:45:28.193Z,19.37
2019-02-07T04:48:30.753Z,21.33
2019-02-07T04:51:36.070Z,21.47
2019-02-07T04:54:42.379Z,22.07
2019-02-07T04:57:31.194Z,18.90
2019-02-07T05:00:13.561Z,17.70
2019-02-07T05:03:12.638Z,19.37
2019-02-07T05:06:06.625Z,20.47
2019-02-07T05:09:05.885Z,19.60
2019-02-07T05:12:02.280Z,23.80
2019-02-07T05:15:08.335Z,24.07
2019-02-07T05:17:57.325Z,20.20
2019-02-07T05:20:47.888Z,20.50
2019-02-07T05:23:38.296Z,24.30
2019-02-07T05:26:28.642Z,23.67
2019-02-07T05:29:12.527Z,21.63
2019-02-07T05:32:08.840Z,30.43
2019-02-07T05:35:04.257Z,24.43
2019-02-07T05:38:10.004Z,29.83
2019-02-07T05:41:12.315Z,27.47
2019-02-07T05:44:01.742Z,27.63
2019-02-07T05:46:53.543Z,27.23
2019-02-07T05:49:43.700Z,23.50
2019-02-07T05:52:28.185Z,24.40
2019-02-07T05:55:20.356Z,23.13
2019-02-07T05:58:08.435Z,25.37
2019-02-07T06:00:56.220Z,22.03
2019-02-07T06:03:46.486Z,23.37
2019-02-07T06:06:45.607Z,24.47
2019-02-07T06:09:42.198Z,25.33
2019-02-07T06:12:29.991Z,25.90
2019-02-07T06:15:18.066Z,22.43
2019-02-07T06:18:02.139Z,22.73
2019-02-07T06:20:49.938Z,24.70
2019-02-07T06:23:39.095Z,25.17
2019-02-07T06:26:39.446Z,22.03
2019-02-07T06:29:29.746Z,22.33
2019-02-07T06:32:26.051Z,24.00
2019-02-07T06:35:16.405Z,23.50
2019-02-07T06:38:05.697Z,20.90
2019-02-07T06:41:12.938Z,27.77
2019-02-07T06:44:11.925Z,23.33
2019-02-07T06:47:13.020Z,21.13
2019-02-07T06:50:00.320Z,23.37
2019-02-07T06:52:49.355Z,19.27
2019-02-07T06:55:57.897Z,25.37
2019-02-07T06:58:46.524Z,22.73
2019-02-07T07:01:35.265Z,24.63
2019-02-07T07:04:25.822Z,23.00
2019-02-07T07:07:11.003Z,26.73
2019-02-07T07:09:59.724Z,22.60
2019-02-07T07:12:58.040Z,25.43
2019-02-07T07:15:40.523Z,19.67
2019-02-07T07:18:36.593Z,26.37
2019-02-07T07:21:33.077Z,24.37
2019-02-07T07:24:41.772Z,22.27
2019-02-07T07:27:38.145Z,21.43
2019-02-07T07:30:31.673Z,24.20
2019-02-07T07:33:24.736Z,22.17
2019-02-07T07:36:17.898Z,25.17
2019-02-07T07:39:08.290Z,23.07
2019-02-07T07:42:01.465Z,25.97
2019-02-07T07:44:51.761Z,27.83
2019-02-07T07:47:40.638Z,18.97
2019-02-07T07:51:01.137Z,20.70
2019-02-07T07:54:20.548Z,25.10
2019-02-07T07:57:15.819Z,20.70
2019-02-07T08:00:15.366Z,23.20
2019-02-07T08:03:23.810Z,23.93
2019-02-07T08:06:21.073Z,24.43
2019-02-07T08:09:13.150Z,29.57
2019-02-07T08:12:13.737Z,26.87
2019-02-07T08:15:14.776Z,21.77
2019-02-07T08:18:05.146Z,26.20
2019-02-07T08:21:10.973Z,27.70
2019-02-07T08:23:50.889Z,19.87
2019-02-07T08:26:39.741Z,22.23
2019-02-07T08:29:42.361Z,25.83
2019-02-07T08:32:38.737Z,30.23
2019-02-07T08:35:26.993Z,23.00
2019-02-07T08:38:20.139Z,31.97
2019-02-07T08:41:19.814Z,25.53
2019-02-07T08:44:13.365Z,26.00
2019-02-07T08:47:13.337Z,32.83
2019-02-07T08:50:03.578Z,23.60
2019-02-07T08:52:52.647Z,34.07
2019-02-07T08:55:46.418Z,29.60
2019-02-07T08:58:32.078Z,23.57
2019-02-07T09:01:28.408Z,30.53
2019-02-07T09:04:23.654Z,25.23
2019-02-07T09:07:32.608Z,23.30
2019-02-07T09:10:23.649Z,24.80
2019-02-07T09:13:27.588Z,29.87
2019-02-07T09:16:13.828Z,29.13
2019-02-07T09:19:06.134Z,26.77
2019-02-07T09:21:55.809Z,28.03
2019-02-07T09:24:49.190Z,29.70
2019-02-07T09:27:38.714Z,28.10
2019-02-07T09:30:34.904Z,28.57
2019-02-07T09:33:38.045Z,26.00
2019-02-07T09:36:37.764Z,29.87
2019-02-07T09:39:28.222Z,32.10
2019-02-07T09:42:30.930Z,31.73
2019-02-07T09:45:30.090Z,26.47
2019-02-07T09:48:24.139Z,28.40
2019-02-07T09:51:06.447Z,28.23
2019-02-07T09:53:56.915Z,24.27
2019-02-07T09:56:50.295Z,23.53
2019-02-07T09:59:39.531Z,23.37
2019-02-07T10:02:31.138Z,26.37
2019-02-07T10:05:30.554Z,25.07
2019-02-07T10:08:13.137Z,24.90
2019-02-07T10:11:12.356Z,24.27
2019-02-07T10:14:08.808Z,20.17
2019-02-07T10:16:49.891Z,31.43
2019-02-07T10:19:43.137Z,24.40
2019-02-07T10:22:22.213Z,27.17
2019-02-07T10:25:10.808Z,27.83
2019-02-07T10:28:02.431Z,22.77
2019-02-07T10:30:52.598Z,26.13
2019-02-07T10:33:35.857Z,19.87
2019-02-07T10:36:26.152Z,20.50
2019-02-07T10:39:15.428Z,22.57
2019-02-07T10:42:18.026Z,20.83
2019-02-07T10:45:12.122Z,20.37
2019-02-07T10:47:58.115Z,16.50
2019-02-07T10:51:07.680Z,19.00
2019-02-07T10:53:46.612Z,17.87
2019-02-07T10:56:38.184Z,21.30
2019-02-07T10:59:27.184Z,22.97
2019-02-07T11:02:17.208Z,18.67
2019-02-07T11:05:04.666Z,21.90
2019-02-07T11:07:57.756Z,17.60
2019-02-07T11:10:49.050Z,24.40
2019-02-07T11:13:40.516Z,15.20
2019-02-07T11:16:33.877Z,16.93
2019-02-07T11:19:21.695Z,17.10
2019-02-07T11:22:10.688Z,15.83
2019-02-07T11:25:04.141Z,14.53
2019-02-07T11:28:10.174Z,12.10
2019-02-07T11:30:52.499Z,19.27
2019-02-07T11:34:01.299Z,19.73
2019-02-07T11:37:00.946Z,19.03
2019-02-07T11:39:51.321Z,19.97
2019-02-07T11:42:41.597Z,30.23
2019-02-07T11:45:40.315Z,18.20
2019-02-07T11:48:40.179Z,15.03
2019-02-07T11:51:30.546Z,12.67
2019-02-07T11:54:20.089Z,12.00
2019-02-07T11:57:25.523Z,14.47
2019-02-07T12:00:18.070Z,12.10
2019-02-07T12:03:09.640Z,12.93
2019-02-07T12:06:14.210Z,15.53
2019-02-07T12:08:55.656Z,13.87
2019-02-07T12:11:44.702Z,12.83
2019-02-07T12:14:36.250Z,12.47
2019-02-07T12:17:45.093Z,9.97
2019-02-07T12:20:38.078Z,13.97
2019-02-07T12:23:28.543Z,14.17
2019-02-07T12:26:37.005Z,12.80
2019-02-07T12:29:26.632Z,11.93
2019-02-07T12:32:23.003Z,16.17
2019-02-07T12:35:15.218Z,15.77
2019-02-07T12:38:06.241Z,19.93
2019-02-07T12:41:00.946Z,16.33
2019-02-07T12:43:50.442Z,16.97
2019-02-07T12:46:38.394Z,23.87
2019-02-07T12:49:33.357Z,20.93
2019-02-07T12:52:22.528Z,17.10
2019-02-07T12:55:16.753Z,22.50
2019-02-07T12:58:05.822Z,21.60
2019-02-07T13:00:58.086Z,20.97
2019-02-07T13:03:48.419Z,13.77
2019-02-07T13:06:44.634Z,16.53
2019-02-07T13:09:54.899Z,22.87
2019-02-07T13:12:44.067Z,21.57
2019-02-07T13:15:33.405Z,30.57
2019-02-07T13:18:22.356Z,19.17
2019-02-07T13:21:18.573Z,19.20
2019-02-07T13:24:04.585Z,16.17
2019-02-07T13:26:51.121Z,17.00
2019-02-07T13:29:40.272Z,17.27
2019-02-07T13:32:29.445Z,15.77
2019-02-07T13:35:18.468Z,18.13
2019-02-07T13:38:10.367Z,12.37
2019-02-07T13:41:08.605Z,14.67
2019-02-07T13:43:57.783Z,14.57
2019-02-07T13:46:50.281Z,14.83
2019-02-07T13:49:51.439Z,14.57
2019-02-07T13:52:31.417Z,13.40
2019-02-07T13:55:24.022Z,15.43
2019-02-07T13:58:15.517Z,19.43
2019-02-07T14:01:13.323Z,18.73
2019-02-07T14:04:22.380Z,16.63
2019-02-07T14:07:21.757Z,14.43
2019-02-07T14:10:24.220Z,18.50
2019-02-07T14:13:10.922Z,14.93
2019-02-07T14:16:05.411Z,16.20
2019-02-07T14:19:14.021Z,15.60
2019-02-07T14:22:19.371Z,20.30
2019-02-07T14:25:08.325Z,18.57
2019-02-07T14:27:51.092Z,15.47
2019-02-07T14:30:44.524Z,13.27
2019-02-07T14:33:34.895Z,13.60
2019-02-07T14:36:40.433Z,16.07
2019-02-07T14:39:29.544Z,14.33
2019-02-07T14:42:19.859Z,16.40
2019-02-07T14:45:08.837Z,17.90
2019-02-07T14:47:40.519Z,17.60
2019-02-07T14:50:15.071Z,14.23
2019-02-07T14:52:47.850Z,15.60
2019-02-07T14:55:24.868Z,12.37
2019-02-07T14:58:06.211Z,17.60
2019-02-07T15:00:40.951Z,17.83
2019-02-07T15:03:12.589Z,16.00
2019-02-07T15:05:47.589Z,18.27
2019-02-07T15:08:19.270Z,14.47
2019-02-07T15:10:52.188Z,28.97
2019-02-07T15:13:23.911Z,18.47
2019-02-07T15:15:58.540Z,14.50
2019-02-07T15:18:30.130Z,15.37
2019-02-07T15:21:02.793Z,22.33
2019-02-07T15:23:34.483Z,15.77
2019-02-07T15:26:06.455Z,16.43
2019-02-07T15:28:38.070Z,19.73
2019-02-07T15:31:09.722Z,13.57
2019-02-07T15:33:41.287Z,15.50
2019-02-07T15:36:13.353Z,19.23
2019-02-07T15:38:45.001Z,14.90
2019-02-07T15:41:16.672Z,17.27
2019-02-07T15:43:48.443Z,16.50
2019-02-07T15:46:20.163Z,19.50
2019-02-07T15:48:52.303Z,28.33
2019-02-07T15:51:24.016Z,24.17
2019-02-07T15:53:55.608Z,22.93
2019-02-07T15:56:28.192Z,20.77
2019-02-07T15:59:21.734Z,13.10
2019-02-07T16:02:14.941Z,16.53
2019-02-07T16:04:47.677Z,23.50
2019-02-07T16:07:19.297Z,25.97
2019-02-07T16:09:50.979Z,40.13
2019-02-07T16:12:23.046Z,30.63
2019-02-07T16:14:54.674Z,21.23
2019-02-07T16:17:26.196Z,36.77
2019-02-07T16:19:57.854Z,17.17
2019-02-07T16:22:29.442Z,18.33
2019-02-07T16:25:01.255Z,19.40
2019-02-07T16:27:33.145Z,19.70
2019-02-07T16:30:06.088Z,21.63
2019-02-07T16:32:37.675Z,15.47
2019-02-07T16:35:10.086Z,17.10
2019-02-07T16:37:42.266Z,16.50
2019-02-07T16:40:14.197Z,25.63
2019-02-07T16:42:46.065Z,19.20
2019-02-07T16:45:18.939Z,15.17
2019-02-07T16:47:52.162Z,14.47
2019-02-07T16:50:26.645Z,18.03
2019-02-07T16:52:58.299Z,17.77
2019-02-07T16:55:31.301Z,17.37
2019-02-07T16:58:02.830Z,23.37
2019-02-07T17:00:34.730Z,19.60
2019-02-07T17:03:08.869Z,37.33
2019-02-07T17:05:43.489Z,51.87
2019-02-07T17:08:15.339Z,29.47
2019-02-07T17:10:51.579Z,27.80
2019-02-07T17:13:23.769Z,16.07
2019-02-07T17:15:55.319Z,31.77
2019-02-07T17:18:26.961Z,23.33
2019-02-07T17:20:58.589Z,22.60
2019-02-07T17:23:31.789Z,14.07
2019-02-07T17:26:04.009Z,14.13
2019-02-07T17:28:35.625Z,14.40
2019-02-07T17:31:08.004Z,11.47
2019-02-07T17:33:39.702Z,10.83
2019-02-07T17:36:11.594Z,14.93
2019-02-07T17:38:43.167Z,15.33
2019-02-07T17:41:14.776Z,12.37
2019-02-07T17:43:46.397Z,10.53
2019-02-07T17:46:18.031Z,11.57
2019-02-07T17:48:49.509Z,13.50
2019-02-07T17:51:23.391Z,15.03
2019-02-07T17:53:54.496Z,11.90
2019-02-07T17:56:26.197Z,10.77
2019-02-07T17:58:57.918Z,13.77
2019-02-07T18:01:29.454Z,14.93
2019-02-07T18:04:01.186Z,13.97
2019-02-07T18:06:33.008Z,20.27
2019-02-07T18:09:06.060Z,14.93
2019-02-07T18:11:39.521Z,21.07
2019-02-07T18:14:11.215Z,20.77
2019-02-07T18:16:42.987Z,9.50
2019-02-07T18:19:14.692Z,13.73
2019-02-07T18:21:46.542Z,13.10
2019-02-07T18:24:18.369Z,10.43
2019-02-07T18:26:50.195Z,11.37
2019-02-07T18:29:22.757Z,15.90
2019-02-07T18:31:54.986Z,12.63
2019-02-07T18:34:26.687Z,14.77
2019-02-07T18:36:59.577Z,12.87
2019-02-07T18:39:31.246Z,11.27
2019-02-07T18:42:02.812Z,13.97
2019-02-07T18:44:34.377Z,12.73
2019-02-07T18:47:09.031Z,31.17
2019-02-07T18:49:41.172Z,26.17
2019-02-07T18:52:12.848Z,14.53
2019-02-07T18:54:44.532Z,17.97
2019-02-07T18:57:16.149Z,19.10
2019-02-07T18:59:47.758Z,12.67
2019-02-07T19:02:19.325Z,12.73
2019-02-07T19:04:51.098Z,11.57
2019-02-07T19:07:22.821Z,17.53
2019-02-07T19:09:54.606Z,19.30
2019-02-07T19:12:26.178Z,24.30
2019-02-07T19:14:57.738Z,18.87
2019-02-07T19:17:29.436Z,18.20
2019-02-07T19:20:01.296Z,24.30
2019-02-07T19:22:34.082Z,28.13
2019-02-07T19:25:06.301Z,29.67
2019-02-07T19:27:38.272Z,18.70
2019-02-07T19:30:14.903Z,27.63
2019-02-07T19:32:46.579Z,24.50
2019-02-07T19:35:18.360Z,50.97
2019-02-07T19:37:50.727Z,37.70
2019-02-07T19:40:25.470Z,22.13
2019-02-07T19:42:57.774Z,30.60
2019-02-07T19:45:31.094Z,30.17
2019-02-07T19:48:02.860Z,25.47
2019-02-07T19:50:35.261Z,24.37
2019-02-07T19:53:07.145Z,21.23
2019-02-07T19:55:51.205Z,27.93
2019-02-07T19:58:22.844Z,28.07
2019-02-07T20:00:57.565Z,34.00
2019-02-07T20:03:29.276Z,31.60
2019-02-07T20:06:01.492Z,31.93
2019-02-07T20:08:34.104Z,28.03
2019-02-07T20:11:06.012Z,27.40
2019-02-07T20:13:37.758Z,32.83
2019-02-07T20:16:09.942Z,29.43
2019-02-07T20:18:41.877Z,34.70
2019-02-07T20:21:13.534Z,27.67
2019-02-07T20:23:45.132Z,27.10
2019-02-07T20:26:16.911Z,30.57
2019-02-07T20:28:51.653Z,29.20
2019-02-07T20:31:21.934Z,31.50
2019-02-07T20:33:53.608Z,29.00
2019-02-07T20:36:25.237Z,30.97
2019-02-07T20:38:58.038Z,31.73
2019-02-07T20:41:30.915Z,28.83
2019-02-07T20:44:02.637Z,29.53
2019-02-07T20:46:34.780Z,27.70
2019-02-07T20:49:06.540Z,33.07
2019-02-07T20:51:38.157Z,32.43
2019-02-07T20:54:09.807Z,30.50
2019-02-07T20:56:41.460Z,32.00
2019-02-07T20:59:13.106Z,33.80
2019-02-07T21:01:44.719Z,31.00
2019-02-07T21:04:16.320Z,30.00
2019-02-07T21:06:47.977Z,34.13
2019-02-07T21:09:21.127Z,32.13
2019-02-07T21:11:52.965Z,27.17
2019-02-07T21:14:24.738Z,33.13
2019-02-07T21:16:56.434Z,28.57
2019-02-07T21:19:28.153Z,34.27
2019-02-07T21:21:59.831Z,33.17
2019-02-07T21:24:31.431Z,36.23
2019-02-07T21:27:03.544Z,28.60
2019-02-07T21:29:35.190Z,32.20
2019-02-07T21:32:07.916Z,32.63
2019-02-07T21:34:39.635Z,32.37
2019-02-07T21:37:11.267Z,30.63
2019-02-07T21:39:43.788Z,29.93
2019-02-07T21:42:15.438Z,30.40
2019-02-07T21:44:47.034Z,30.97
2019-02-07T21:47:18.680Z,25.73
2019-02-07T21:49:50.450Z,26.60
2019-02-07T21:52:22.242Z,28.30
2019-02-07T21:54:54.191Z,26.67
2019-02-07T21:57:25.923Z,29.17
2019-02-07T22:00:00.845Z,24.57
2019-02-07T22:02:30.930Z,28.53
2019-02-07T22:05:02.542Z,31.43
2019-02-07T22:07:34.290Z,32.90
2019-02-07T22:10:07.469Z,34.47
2019-02-07T22:12:39.092Z,25.97
2019-02-07T22:15:13.289Z,27.70
2019-02-07T22:17:45.016Z,30.27
2019-02-07T22:20:26.411Z,29.93
2019-02-07T22:22:58.025Z,38.30
2019-02-07T22:25:31.419Z,28.43
2019-02-07T22:28:03.160Z,29.47
2019-02-07T22:30:35.706Z,29.00
2019-02-07T22:33:08.363Z,32.90
2019-02-07T22:35:39.897Z,29.03
2019-02-07T22:38:11.784Z,30.37
2019-02-07T22:40:45.468Z,33.03
2019-02-07T22:43:17.200Z,32.10
2019-02-07T22:45:57.449Z,32.93
2019-02-07T22:48:30.331Z,31.43
2019-02-07T22:51:01.794Z,28.60
2019-02-07T22:53:34.575Z,34.37
2019-02-07T22:56:07.095Z,27.90
2019-02-07T22:58:38.932Z,35.43
2019-02-07T23:01:29.477Z,32.23
2019-02-07T23:04:07.856Z,28.03
2019-02-07T23:06:39.599Z,30.33
2019-02-07T23:09:14.729Z,35.60
2019-02-07T23:11:46.968Z,26.50
2019-02-07T23:14:18.763Z,33.73
2019-02-07T23:16:50.510Z,34.70
2019-02-07T23:19:22.093Z,40.93
2019-02-07T23:21:53.803Z,36.03
2019-02-07T23:24:25.494Z,38.50
2019-02-07T23:26:57.067Z,32.60
2019-02-07T23:29:29.983Z,40.73
2019-02-07T23:32:01.653Z,43.30
2019-02-07T23:34:33.227Z,34.47
2019-02-07T23:37:04.865Z,41.23
2019-02-07T23:39:36.505Z,40.17
2019-02-07T23:42:08.143Z,45.33
2019-02-07T23:44:39.822Z,41.37
2019-02-07T23:47:11.369Z,43.07
2019-02-07T23:49:42.985Z,42.03
2019-02-07T23:52:16.739Z,36.90
2019-02-07T23:54:49.648Z,40.53
2019-02-07T23:57:21.256Z,37.70
2019-02-07T23:59:52.758Z,38.00
